createdAt,value
2023-05-16T00:00:48.241Z,101373.31
2023-05-16T00:03:16.079Z,101375.66
2023-05-16T00:05:43.884Z,101380.00
2023-05-16T00:08:13.289Z,101400.13
2023-05-16T00:10:41.309Z,101408.75
2023-05-16T00:13:10.471Z,101399.06
2023-05-16T00:15:38.488Z,101411.06
2023-05-16T00:18:06.843Z,101386.63
2023-05-16T00:20:34.860Z,101372.72
2023-05-16T00:23:02.732Z,101370.75
2023-05-16T00:25:31.891Z,101375.09
2023-05-16T00:27:59.736Z,101361.91
2023-05-16T00:30:27.877Z,101360.50
2023-05-16T00:32:56.530Z,101358.09
2023-05-16T00:35:24.894Z,101346.41
2023-05-16T00:37:52.804Z,101347.28
2023-05-16T00:40:22.784Z,101349.72
2023-05-16T00:42:51.915Z,101344.97
2023-05-16T00:45:20.581Z,101344.97
2023-05-16T00:47:48.929Z,101362.19
2023-05-16T00:50:17.367Z,101368.94
2023-05-16T00:52:45.357Z,101364.84
2023-05-16T00:55:14.302Z,101365.41
2023-05-16T00:57:45.217Z,101380.81
2023-05-16T01:00:15.949Z,101372.69
2023-05-16T01:02:44.769Z,101381.03
2023-05-16T01:05:13.146Z,101365.47
2023-05-16T01:07:41.428Z,101369.91
2023-05-16T01:10:10.170Z,101376.19
2023-05-16T01:12:43.303Z,101397.22
2023-05-16T01:15:16.671Z,101401.28
2023-05-16T01:17:58.214Z,101390.88
2023-05-16T01:20:34.889Z,101379.44
2023-05-16T01:23:18.722Z,101376.41
2023-05-16T01:25:58.019Z,101379.44
2023-05-16T01:28:28.368Z,101381.66
2023-05-16T01:30:56.675Z,101382.75
2023-05-16T01:33:24.464Z,101373.56
2023-05-16T01:36:00.915Z,101377.06
2023-05-16T01:38:36.662Z,101373.38
2023-05-16T01:41:12.648Z,101362.84
2023-05-16T01:43:45.323Z,101360.38
2023-05-16T01:46:15.711Z,101359.84
2023-05-16T01:48:52.719Z,101365.25
2023-05-16T01:51:23.931Z,101374.25
2023-05-16T01:53:54.071Z,101387.56
2023-05-16T01:56:22.970Z,101405.06
2023-05-16T01:58:54.509Z,101401.19
2023-05-16T02:01:22.450Z,101392.00
2023-05-16T02:03:51.060Z,101399.84
2023-05-16T02:06:18.969Z,101403.78
2023-05-16T02:08:46.768Z,101403.75
2023-05-16T02:11:14.507Z,101386.25
2023-05-16T02:13:42.554Z,101399.16
2023-05-16T02:16:13.262Z,101405.69
2023-05-16T02:18:42.506Z,101385.84
2023-05-16T02:21:10.552Z,101390.94
2023-05-16T02:23:38.366Z,101402.06
2023-05-16T02:26:06.451Z,101410.03
2023-05-16T02:28:34.637Z,101412.88
2023-05-16T02:31:03.218Z,101418.84
2023-05-16T02:33:32.455Z,101416.09
2023-05-16T02:36:00.218Z,101430.66
2023-05-16T02:38:28.010Z,101428.53
2023-05-16T02:40:56.933Z,101440.44
2023-05-16T02:43:24.846Z,101433.72
2023-05-16T02:45:53.115Z,101445.31
2023-05-16T02:48:21.054Z,101455.78
2023-05-16T02:50:50.653Z,101472.22
2023-05-16T02:53:18.557Z,101460.88
2023-05-16T02:55:46.375Z,101457.75
2023-05-16T02:58:14.239Z,101468.41
2023-05-16T03:00:42.681Z,101477.00
2023-05-16T03:03:10.985Z,101476.34
2023-05-16T03:05:38.922Z,101479.25
2023-05-16T03:08:08.951Z,101493.19
2023-05-16T03:10:36.760Z,101496.75
2023-05-16T03:13:04.532Z,101514.09
2023-05-16T03:15:32.327Z,101500.06
2023-05-16T03:18:00.810Z,101519.53
2023-05-16T03:20:28.546Z,101510.06
2023-05-16T03:22:58.135Z,101515.63
2023-05-16T03:25:27.706Z,101513.53
2023-05-16T03:27:55.710Z,101518.16
2023-05-16T03:30:24.092Z,101528.84
2023-05-16T03:32:51.917Z,101526.88
2023-05-16T03:35:20.280Z,101522.78
2023-05-16T03:37:48.141Z,101523.56
2023-05-16T03:40:15.937Z,101517.66
2023-05-16T03:42:45.209Z,101512.78
2023-05-16T03:45:13.635Z,101529.50
2023-05-16T03:47:41.681Z,101524.59
2023-05-16T03:50:10.907Z,101528.16
2023-05-16T03:52:38.801Z,101528.88
2023-05-16T03:55:08.121Z,101537.31
2023-05-16T03:57:38.023Z,101550.59
2023-05-16T04:00:09.139Z,101545.44
2023-05-16T04:02:41.489Z,101555.22
2023-05-16T04:05:11.118Z,101552.47
2023-05-16T04:07:39.452Z,101556.56
2023-05-16T04:10:08.043Z,101558.53
2023-05-16T04:12:36.233Z,101563.28
2023-05-16T04:15:04.375Z,101567.34
2023-05-16T04:17:33.596Z,101582.34
2023-05-16T04:20:01.730Z,101576.91
2023-05-16T04:22:29.568Z,101581.34
2023-05-16T04:24:57.424Z,101583.91
2023-05-16T04:27:25.104Z,101588.78
2023-05-16T04:29:52.982Z,101595.06
2023-05-16T04:32:20.920Z,101595.22
2023-05-16T04:34:53.250Z,101609.25
2023-05-16T04:37:21.084Z,101608.00
2023-05-16T04:39:48.784Z,101619.00
2023-05-16T04:42:16.470Z,101621.78
2023-05-16T04:44:44.898Z,101615.88
2023-05-16T04:47:13.000Z,101628.28
2023-05-16T04:49:40.796Z,101637.44
2023-05-16T04:52:10.306Z,101632.56
2023-05-16T04:54:39.245Z,101644.44
2023-05-16T04:57:06.996Z,101640.94
2023-05-16T04:59:34.854Z,101643.25
2023-05-16T05:02:02.732Z,101642.91
2023-05-16T05:04:30.733Z,101653.66
2023-05-16T05:06:58.526Z,101640.69
2023-05-16T05:09:27.722Z,101646.56
2023-05-16T05:11:55.558Z,101652.44
2023-05-16T05:14:23.853Z,101660.84
2023-05-16T05:16:51.649Z,101655.59
2023-05-16T05:19:19.607Z,101654.22
2023-05-16T05:21:47.458Z,101659.72
2023-05-16T05:24:15.422Z,101672.72
2023-05-16T05:26:44.783Z,101676.19
2023-05-16T05:29:12.961Z,101689.28
2023-05-16T05:31:40.920Z,101692.66
2023-05-16T05:34:08.809Z,101698.31
2023-05-16T05:36:36.556Z,101701.81
2023-05-16T05:39:04.617Z,101712.00
2023-05-16T05:41:32.496Z,101716.22
2023-05-16T05:44:02.015Z,101719.47
2023-05-16T05:46:30.139Z,101720.97
2023-05-16T05:48:58.704Z,101733.38
2023-05-16T05:51:27.013Z,101734.63
2023-05-16T05:53:55.506Z,101739.75
2023-05-16T05:56:24.655Z,101738.50
2023-05-16T05:58:52.433Z,101735.31
2023-05-16T06:01:22.292Z,101733.28
2023-05-16T06:03:50.197Z,101753.50
2023-05-16T06:06:19.329Z,101750.22
2023-05-16T06:08:47.110Z,101756.09
2023-05-16T06:11:14.947Z,101770.00
2023-05-16T06:13:42.681Z,101774.84
2023-05-16T06:16:10.462Z,101777.88
2023-05-16T06:18:39.684Z,101786.28
2023-05-16T06:21:08.072Z,101783.84
2023-05-16T06:23:35.985Z,101793.03
2023-05-16T06:26:04.189Z,101793.84
2023-05-16T06:28:32.307Z,101806.53
2023-05-16T06:31:00.116Z,101812.00
2023-05-16T06:33:27.888Z,101810.19
2023-05-16T06:35:57.038Z,101819.09
2023-05-16T06:38:24.945Z,101815.34
2023-05-16T06:40:52.721Z,101816.56
2023-05-16T06:43:20.572Z,101824.34
2023-05-16T06:45:48.454Z,101826.00
2023-05-16T06:48:16.491Z,101842.13
2023-05-16T06:50:44.348Z,101850.50
2023-05-16T06:53:13.828Z,101849.09
2023-05-16T06:55:41.641Z,101850.63
2023-05-16T06:58:09.587Z,101852.06
2023-05-16T07:00:37.696Z,101859.22
2023-05-16T07:03:06.050Z,101860.97
2023-05-16T07:05:33.914Z,101854.50
2023-05-16T07:08:01.864Z,101854.75
2023-05-16T07:10:31.177Z,101868.50
2023-05-16T07:13:01.477Z,101871.19
2023-05-16T07:15:29.535Z,101870.00
2023-05-16T07:17:57.907Z,101879.13
2023-05-16T07:20:25.918Z,101873.59
2023-05-16T07:22:53.717Z,101881.31
2023-05-16T07:25:21.827Z,101886.22
2023-05-16T07:27:51.041Z,101883.31
2023-05-16T07:30:18.868Z,101884.22
2023-05-16T07:32:46.796Z,101894.53
2023-05-16T07:35:14.645Z,101899.34
2023-05-16T07:37:43.537Z,101893.94
2023-05-16T07:40:13.711Z,101898.97
2023-05-16T07:42:41.655Z,101903.81
2023-05-16T07:45:11.488Z,101901.91
2023-05-16T07:47:39.324Z,101902.84
2023-05-16T07:50:08.155Z,101899.56
2023-05-16T07:52:36.322Z,101901.34
2023-05-16T07:55:04.147Z,101909.22
2023-05-16T07:57:35.121Z,101914.75
2023-05-16T08:00:04.341Z,101915.28
2023-05-16T08:02:41.925Z,101919.09
2023-05-16T08:05:11.290Z,101912.31
2023-05-16T08:07:39.575Z,101922.34
2023-05-16T08:10:10.192Z,101915.34
2023-05-16T08:12:40.434Z,101917.13
2023-05-16T08:15:10.279Z,101920.19
2023-05-16T08:17:38.754Z,101916.47
2023-05-16T08:20:09.763Z,101922.97
2023-05-16T08:22:38.222Z,101923.28
2023-05-16T08:25:07.519Z,101920.16
2023-05-16T08:27:36.214Z,101924.88
2023-05-16T08:30:05.005Z,101927.94
2023-05-16T08:32:33.575Z,101920.56
2023-05-16T08:35:02.123Z,101934.38
2023-05-16T08:37:32.009Z,101940.81
2023-05-16T08:40:00.463Z,101936.84
2023-05-16T08:42:28.982Z,101937.66
2023-05-16T08:44:57.113Z,101932.09
2023-05-16T08:47:26.517Z,101936.34
2023-05-16T08:49:59.052Z,101939.69
2023-05-16T08:52:30.317Z,101928.81
2023-05-16T08:55:10.229Z,101929.72
2023-05-16T08:57:41.085Z,101924.31
2023-05-16T09:00:13.301Z,101928.88
2023-05-16T09:02:43.226Z,101938.28
2023-05-16T09:05:15.258Z,101941.53
2023-05-16T09:07:44.409Z,101945.72
2023-05-16T09:10:14.592Z,101934.91
2023-05-16T09:12:44.211Z,101939.38
2023-05-16T09:15:14.624Z,101939.06
2023-05-16T09:17:46.812Z,101939.03
2023-05-16T09:20:17.835Z,101933.19
2023-05-16T09:22:54.305Z,101929.53
2023-05-16T09:25:30.298Z,101931.09
2023-05-16T09:28:02.395Z,101926.53
2023-05-16T09:30:33.981Z,101935.22
2023-05-16T09:33:03.348Z,101927.19
2023-05-16T09:38:04.355Z,101927.06
2023-05-16T09:40:34.822Z,101924.38
2023-05-16T09:43:08.709Z,101931.84
2023-05-16T09:45:37.909Z,101932.16
2023-05-16T09:48:07.819Z,101928.84
2023-05-16T09:50:37.857Z,101941.91
2023-05-16T09:53:06.725Z,101941.91
2023-05-16T09:55:36.769Z,101931.63
2023-05-16T09:58:05.211Z,101935.34
2023-05-16T10:00:35.175Z,101939.97
2023-05-16T10:03:05.711Z,101936.47
2023-05-16T10:05:37.774Z,101931.47
2023-05-16T10:08:07.329Z,101933.84
2023-05-16T10:10:39.672Z,101933.47
2023-05-16T10:13:09.553Z,101925.78
2023-05-16T10:15:39.505Z,101935.84
2023-05-16T10:18:13.258Z,101944.78
2023-05-16T10:20:44.038Z,101941.59
2023-05-16T10:23:16.383Z,101944.84
2023-05-16T10:25:47.399Z,101944.28
2023-05-16T10:28:16.465Z,101943.25
2023-05-16T10:30:47.014Z,101943.47
2023-05-16T10:33:17.091Z,101942.53
2023-05-16T10:35:46.752Z,101944.28
2023-05-16T10:38:18.318Z,101944.56
2023-05-16T10:40:49.377Z,101931.69
2023-05-16T10:43:25.540Z,101930.41
2023-05-16T10:45:57.957Z,101931.19
2023-05-16T10:48:33.448Z,101931.13
2023-05-16T10:51:04.542Z,101938.00
2023-05-16T10:53:37.324Z,101929.34
2023-05-16T10:56:12.764Z,101933.59
2023-05-16T10:58:43.263Z,101926.91
2023-05-16T11:01:23.124Z,101908.56
2023-05-16T11:04:09.324Z,101915.84
2023-05-16T11:06:47.858Z,101917.28
2023-05-16T11:09:28.282Z,101913.00
2023-05-16T11:12:03.496Z,101912.41
2023-05-16T11:14:39.567Z,101914.84
2023-05-16T11:17:13.619Z,101925.25
2023-05-16T11:19:51.653Z,101915.38
2023-05-16T11:22:27.464Z,101918.59
2023-05-16T11:25:00.302Z,101923.50
2023-05-16T11:27:31.399Z,101911.59
2023-05-16T11:30:04.057Z,101921.25
2023-05-16T11:32:35.018Z,101926.75
2023-05-16T11:35:04.707Z,101940.25
2023-05-16T11:37:32.913Z,101954.75
2023-05-16T11:40:02.527Z,101961.28
2023-05-16T11:42:33.901Z,101965.47
2023-05-16T11:45:09.332Z,101962.44
2023-05-16T11:47:39.290Z,101967.13
2023-05-16T11:50:08.993Z,101959.41
2023-05-16T11:52:37.456Z,101966.63
2023-05-16T11:55:06.944Z,101955.38
2023-05-16T11:57:36.805Z,101949.78
2023-05-16T12:00:08.182Z,101937.75
2023-05-16T12:02:36.657Z,101937.19
2023-05-16T12:05:10.242Z,101931.00
2023-05-16T12:07:39.436Z,101931.16
2023-05-16T12:10:08.936Z,101935.97
2023-05-16T12:12:40.940Z,101928.22
2023-05-16T12:15:10.366Z,101932.19
2023-05-16T12:17:40.173Z,101929.34
2023-05-16T12:20:14.226Z,101924.38
2023-05-16T12:22:42.381Z,101922.47
2023-05-16T12:25:28.044Z,101917.13
2023-05-16T12:27:59.598Z,101919.81
2023-05-16T12:30:29.622Z,101912.84
2023-05-16T12:32:58.559Z,101910.63
2023-05-16T12:35:27.438Z,101909.94
2023-05-16T12:37:56.205Z,101920.34
2023-05-16T12:40:24.243Z,101922.28
2023-05-16T12:42:52.571Z,101914.88
2023-05-16T12:45:23.531Z,101912.78
2023-05-16T12:47:52.016Z,101910.88
2023-05-16T12:50:20.502Z,101906.06
2023-05-16T12:52:50.629Z,101892.88
2023-05-16T12:55:23.325Z,101898.69
2023-05-16T12:57:52.088Z,101894.91
2023-05-16T13:00:23.351Z,101904.72
2023-05-16T13:02:52.440Z,101898.59
2023-05-16T13:05:22.055Z,101903.75
2023-05-16T13:07:51.582Z,101895.09
2023-05-16T13:10:19.785Z,101901.13
2023-05-16T13:12:47.766Z,101898.88
2023-05-16T13:15:15.705Z,101907.59
2023-05-16T13:17:45.436Z,101899.16
2023-05-16T13:20:15.161Z,101910.03
2023-05-16T13:22:44.356Z,101901.50
2023-05-16T13:25:12.887Z,101910.03
2023-05-16T13:27:40.961Z,101900.81
2023-05-16T13:30:10.299Z,101909.47
2023-05-16T13:32:38.187Z,101911.56
2023-05-16T13:35:08.454Z,101915.28
2023-05-16T13:37:36.959Z,101925.53
2023-05-16T13:40:05.524Z,101929.41
2023-05-16T13:42:33.361Z,101919.81
2023-05-16T13:45:01.165Z,101926.47
2023-05-16T13:47:30.237Z,101925.31
2023-05-16T13:49:58.108Z,101934.50
2023-05-16T13:52:27.446Z,101926.78
2023-05-16T13:54:55.877Z,101936.25
2023-05-16T13:57:24.061Z,101931.84
2023-05-16T14:02:22.625Z,101931.97
2023-05-16T14:04:50.674Z,101936.63
2023-05-16T14:07:18.527Z,101930.41
2023-05-16T14:09:48.030Z,101929.03
2023-05-16T14:12:15.996Z,101949.97
2023-05-16T14:14:43.827Z,101948.44
2023-05-16T14:17:11.711Z,101945.94
2023-05-16T14:19:39.554Z,101943.44
2023-05-16T14:22:08.102Z,101948.72
2023-05-16T14:24:35.907Z,101945.75
2023-05-16T14:27:05.263Z,101950.59
2023-05-16T14:29:33.137Z,101946.72
2023-05-16T14:32:00.989Z,101937.84
2023-05-16T14:34:28.932Z,101951.16
2023-05-16T14:36:56.732Z,101952.16
2023-05-16T14:39:24.493Z,101955.88
2023-05-16T14:41:52.309Z,101955.56
2023-05-16T14:44:21.757Z,101958.03
2023-05-16T14:46:49.558Z,101978.47
2023-05-16T14:49:17.358Z,101975.50
2023-05-16T14:51:49.281Z,101972.06
2023-05-16T14:54:17.414Z,101985.06
2023-05-16T14:56:46.173Z,101981.81
2023-05-16T14:59:14.270Z,101972.06
2023-05-16T15:01:43.613Z,101981.91
2023-05-16T15:04:11.534Z,101975.59
2023-05-16T15:06:39.512Z,101981.03
2023-05-16T15:09:07.345Z,101985.84
2023-05-16T15:11:35.320Z,102000.66
2023-05-16T15:14:03.116Z,102003.28
2023-05-16T15:16:31.084Z,101995.13
2023-05-16T15:19:00.432Z,102007.63
2023-05-16T15:21:28.338Z,102000.91
2023-05-16T15:23:56.346Z,102011.13
2023-05-16T15:26:24.927Z,102008.84
2023-05-16T15:28:55.424Z,102012.53
2023-05-16T15:31:24.273Z,102020.50
2023-05-16T15:33:52.535Z,102004.00
2023-05-16T15:36:22.183Z,102019.38
2023-05-16T15:38:50.269Z,102030.22
2023-05-16T15:41:31.933Z,102031.84
2023-05-16T15:44:07.078Z,102042.59
2023-05-16T15:46:35.754Z,102040.09
2023-05-16T15:49:04.219Z,102049.16
2023-05-16T15:51:33.846Z,102040.78
2023-05-16T15:54:03.252Z,102046.16
2023-05-16T15:56:31.363Z,102040.06
2023-05-16T15:58:59.570Z,102048.63
2023-05-16T16:01:27.903Z,102039.59
2023-05-16T16:03:58.531Z,102050.03
2023-05-16T16:06:27.494Z,102046.13
2023-05-16T16:08:57.497Z,102047.06
2023-05-16T16:11:28.023Z,102045.50
2023-05-16T16:13:56.382Z,102051.06
2023-05-16T16:16:25.069Z,102051.06
2023-05-16T16:18:54.528Z,102053.63
2023-05-16T16:21:23.895Z,102052.66
2023-05-16T16:23:52.197Z,102060.78
2023-05-16T16:26:21.524Z,102057.28
2023-05-16T16:28:50.187Z,102053.22
2023-05-16T16:31:18.320Z,102048.53
2023-05-16T16:33:49.310Z,102055.47
2023-05-16T16:36:17.721Z,102055.53
2023-05-16T16:38:45.723Z,102051.00
2023-05-16T16:41:14.358Z,102058.44
2023-05-16T16:43:43.667Z,102061.13
2023-05-16T16:46:11.989Z,102060.66
2023-05-16T16:48:40.147Z,102061.91
2023-05-16T16:51:08.008Z,102064.38
2023-05-16T16:53:37.807Z,102064.28
2023-05-16T16:56:06.022Z,102067.56
2023-05-16T16:58:33.910Z,102071.63
2023-05-16T17:01:03.982Z,102069.00
2023-05-16T17:03:32.070Z,102069.47
2023-05-16T17:06:00.003Z,102079.47
2023-05-16T17:08:27.906Z,102069.41
2023-05-16T17:10:56.029Z,102066.69
2023-05-16T17:13:23.794Z,102071.78
2023-05-16T17:15:52.128Z,102081.84
2023-05-16T17:18:21.780Z,102083.91
2023-05-16T17:20:50.118Z,102076.22
2023-05-16T17:23:17.998Z,102079.28
2023-05-16T17:25:46.401Z,102090.03
2023-05-16T17:28:14.518Z,102084.81
2023-05-16T17:30:44.776Z,102091.22
2023-05-16T17:33:12.554Z,102103.25
2023-05-16T17:35:42.041Z,102093.31
2023-05-16T17:38:11.207Z,102096.72
2023-05-16T17:40:38.993Z,102099.84
2023-05-16T17:43:06.913Z,102095.22
2023-05-16T17:45:34.822Z,102103.84
2023-05-16T17:48:02.609Z,102096.91
2023-05-16T17:50:31.044Z,102099.13
2023-05-16T17:53:00.529Z,102104.72
2023-05-16T17:55:28.943Z,102104.41
2023-05-16T17:57:57.100Z,102106.50
2023-05-16T18:00:25.775Z,102103.22
2023-05-16T18:02:53.674Z,102101.63
2023-05-16T18:05:22.308Z,102111.06
2023-05-16T18:07:50.279Z,102111.75
2023-05-16T18:10:19.817Z,102108.19
2023-05-16T18:12:47.980Z,102112.66
2023-05-16T18:15:16.234Z,102116.19
2023-05-16T18:17:44.100Z,102109.31
2023-05-16T18:20:13.060Z,102112.22
2023-05-16T18:22:41.253Z,102114.88
2023-05-16T18:25:10.782Z,102112.97
2023-05-16T18:27:40.143Z,102117.22
2023-05-16T18:30:09.141Z,102119.25
2023-05-16T18:32:37.259Z,102118.00
2023-05-16T18:35:05.392Z,102110.91
2023-05-16T18:37:33.223Z,102111.22
2023-05-16T18:40:01.504Z,102117.94
2023-05-16T18:42:29.575Z,102118.91
2023-05-16T18:44:59.098Z,102116.13
2023-05-16T18:47:27.179Z,102128.19
2023-05-16T18:49:55.847Z,102118.63
2023-05-16T18:52:23.719Z,102114.31
2023-05-16T18:54:51.556Z,102122.63
2023-05-16T18:57:19.497Z,102119.19
2023-05-16T18:59:47.534Z,102120.56
2023-05-16T19:02:17.923Z,102127.59
2023-05-16T19:04:48.396Z,102124.06
2023-05-16T19:07:16.257Z,102123.13
2023-05-16T19:09:46.812Z,102125.16
2023-05-16T19:12:14.633Z,102128.28
2023-05-16T19:14:42.585Z,102131.81
2023-05-16T19:17:10.608Z,102136.16
2023-05-16T19:19:40.850Z,102135.06
2023-05-16T19:22:08.932Z,102134.00
2023-05-16T19:24:36.885Z,102135.34
2023-05-16T19:27:05.120Z,102133.38
2023-05-16T19:29:33.141Z,102139.13
2023-05-16T19:32:02.975Z,102140.75
2023-05-16T19:34:31.021Z,102142.78
2023-05-16T19:37:02.154Z,102141.78
2023-05-16T19:39:30.612Z,102145.69
2023-05-16T19:42:06.667Z,102144.81
2023-05-16T19:44:35.522Z,102150.50
2023-05-16T19:47:03.323Z,102143.72
2023-05-16T19:49:32.344Z,102148.59
2023-05-16T19:52:03.230Z,102143.59
2023-05-16T19:54:31.873Z,102144.66
2023-05-16T19:56:59.677Z,102142.91
2023-05-16T19:59:27.518Z,102149.84
2023-05-16T20:01:55.302Z,102146.28
2023-05-16T20:04:23.109Z,102148.31
2023-05-16T20:06:51.855Z,102149.53
2023-05-16T20:09:21.065Z,102146.09
2023-05-16T20:11:49.653Z,102147.28
2023-05-16T20:14:17.471Z,102150.06
2023-05-16T20:16:45.436Z,102161.97
2023-05-16T20:19:13.661Z,102162.13
2023-05-16T20:21:41.659Z,102158.31
2023-05-16T20:24:09.547Z,102165.63
2023-05-16T20:26:38.680Z,102167.47
2023-05-16T20:29:06.516Z,102168.19
2023-05-16T20:31:34.536Z,102173.19
2023-05-16T20:34:02.430Z,102174.69
2023-05-16T20:36:30.938Z,102179.44
2023-05-16T20:38:58.737Z,102178.06
2023-05-16T20:41:26.749Z,102187.03
2023-05-16T20:43:56.235Z,102184.41
2023-05-16T20:46:24.229Z,102184.00
2023-05-16T20:48:52.054Z,102178.47
2023-05-16T20:51:19.926Z,102174.41
2023-05-16T20:53:47.713Z,102178.47
2023-05-16T20:56:15.493Z,102184.44
2023-05-16T20:58:43.702Z,102183.66
2023-05-16T21:01:12.867Z,102182.56
2023-05-16T21:03:40.678Z,102182.06
2023-05-16T21:06:08.548Z,102184.06
2023-05-16T21:08:36.847Z,102180.41
2023-05-16T21:11:04.808Z,102177.78
2023-05-16T21:13:32.597Z,102184.66
2023-05-16T21:16:00.629Z,102182.31
2023-05-16T21:18:30.018Z,102176.72
2023-05-16T21:20:57.982Z,102186.25
2023-05-16T21:23:25.927Z,102182.25
2023-05-16T21:25:53.683Z,102178.38
2023-05-16T21:28:22.008Z,102185.38
2023-05-16T21:30:49.886Z,102180.47
2023-05-16T21:33:17.763Z,102178.81
2023-05-16T21:35:47.220Z,102178.09
2023-05-16T21:38:15.053Z,102181.06
2023-05-16T21:40:42.901Z,102177.00
2023-05-16T21:43:11.374Z,102180.91
2023-05-16T21:45:40.151Z,102172.38
2023-05-16T21:48:08.315Z,102178.78
2023-05-16T21:50:36.220Z,102173.56
2023-05-16T21:53:05.388Z,102172.59
2023-05-16T21:55:33.242Z,102187.50
2023-05-16T21:58:01.020Z,102185.03
2023-05-16T22:00:28.981Z,102182.53
2023-05-16T22:02:56.991Z,102193.97
2023-05-16T22:05:25.264Z,102186.88
2023-05-16T22:07:53.749Z,102177.84
2023-05-16T22:10:23.191Z,102179.81
2023-05-16T22:12:51.003Z,102172.97
2023-05-16T22:15:18.866Z,102174.91
2023-05-16T22:17:48.110Z,102172.25
2023-05-16T22:20:16.150Z,102169.91
2023-05-16T22:22:44.699Z,102169.47
2023-05-16T22:25:12.857Z,102171.50
2023-05-16T22:27:42.142Z,102166.19
2023-05-16T22:30:10.366Z,102165.31
2023-05-16T22:32:38.222Z,102164.59
2023-05-16T22:35:06.696Z,102165.84
2023-05-16T22:37:34.530Z,102161.13
2023-05-16T22:40:02.478Z,102147.84
2023-05-16T22:42:31.288Z,102158.44
2023-05-16T22:45:00.597Z,102154.22
2023-05-16T22:47:29.330Z,102162.56
2023-05-16T22:49:57.183Z,102157.06
2023-05-16T22:52:24.938Z,102166.19
2023-05-16T22:54:52.735Z,102170.09
2023-05-16T22:57:20.639Z,102165.41
2023-05-16T22:59:48.710Z,102168.38
2023-05-16T23:02:40.001Z,102168.59
2023-05-16T23:05:09.112Z,102162.25
2023-05-16T23:07:36.992Z,102161.56
2023-05-16T23:10:06.005Z,102165.81
2023-05-16T23:12:33.958Z,102163.81
2023-05-16T23:15:01.818Z,102168.38
2023-05-16T23:17:29.723Z,102155.84
2023-05-16T23:19:59.123Z,102163.19
2023-05-16T23:22:27.065Z,102160.25
2023-05-16T23:24:54.874Z,102161.00
2023-05-16T23:27:22.619Z,102171.75
2023-05-16T23:29:50.572Z,102164.44
2023-05-16T23:32:18.438Z,102169.19
2023-05-16T23:34:46.431Z,102169.06
2023-05-16T23:37:15.656Z,102177.44
2023-05-16T23:39:43.510Z,102172.03
2023-05-16T23:42:11.612Z,102175.50
2023-05-16T23:44:41.826Z,102183.34
2023-05-16T23:47:10.059Z,102179.53
2023-05-16T23:49:38.233Z,102179.50
2023-05-16T23:52:06.810Z,102187.78
2023-05-16T23:54:36.078Z,102190.47
2023-05-16T23:57:03.856Z,102187.91
2023-05-16T23:59:31.663Z,102193.09
